createdAt,value
2018-11-21T00:07:38.312Z,100.00
2018-11-21T00:12:44.364Z,100.00
2018-11-21T00:18:06.813Z,100.00
2018-11-21T00:23:22.730Z,100.00
2018-11-21T00:28:27.049Z,100.00
2018-11-21T00:33:30.435Z,100.00
2018-11-21T00:38:34.017Z,100.00
2018-11-21T00:43:37.430Z,100.00
2018-11-21T00:48:59.888Z,100.00
2018-11-21T00:54:03.304Z,100.00
2018-11-21T00:59:06.899Z,100.00
2018-11-21T01:04:29.348Z,100.00
2018-11-21T01:14:48.327Z,100.00
2018-11-21T01:20:10.791Z,100.00
2018-11-21T01:25:33.290Z,100.00
2018-11-21T01:35:52.092Z,97.29
2018-11-21T01:40:55.402Z,97.68
2018-11-21T01:45:58.800Z,97.03
2018-11-21T01:51:02.194Z,96.13
2018-11-21T01:56:05.925Z,96.20
2018-11-21T02:01:09.486Z,96.12
2018-11-21T02:06:12.895Z,96.64
2018-11-21T02:11:16.302Z,96.29
2018-11-21T02:16:19.692Z,96.46
2018-11-21T02:21:23.085Z,96.04
2018-11-21T02:26:26.795Z,96.49
2018-11-21T02:36:38.875Z,96.11
2018-11-21T02:41:42.400Z,96.60
2018-11-21T02:47:04.876Z,96.33
2018-11-21T02:52:08.434Z,96.12
2018-11-21T02:57:32.598Z,96.79
2018-11-21T03:02:36.004Z,97.31
2018-11-21T03:07:58.456Z,98.17
2018-11-21T03:13:01.882Z,99.24
2018-11-21T03:18:24.854Z,98.29
2018-11-21T03:23:28.251Z,98.52
2018-11-21T03:28:31.720Z,98.96
2018-11-21T03:33:35.121Z,99.07
2018-11-21T03:38:57.524Z,99.39
2018-11-21T03:49:16.809Z,98.42
2018-11-21T03:54:20.202Z,98.69
2018-11-21T03:59:42.654Z,98.65
2018-11-21T04:05:05.157Z,98.78
2018-11-21T04:10:27.983Z,97.53
2018-11-21T04:15:31.615Z,97.98
2018-11-21T04:20:54.070Z,98.68
2018-11-21T04:25:57.552Z,98.43
2018-11-21T04:31:00.972Z,98.43
2018-11-21T04:36:04.685Z,98.45
2018-11-21T04:41:08.098Z,97.94
2018-11-21T04:56:48.618Z,97.53
2018-11-21T05:01:52.029Z,97.49
2018-11-21T05:07:14.527Z,96.96
2018-11-21T05:17:49.342Z,96.91
2018-11-21T05:23:11.836Z,97.17
2018-11-21T05:28:15.755Z,97.69
2018-11-21T05:33:19.104Z,97.70
2018-11-21T05:38:41.719Z,96.99
2018-11-21T05:43:45.156Z,97.98
2018-11-21T05:48:53.397Z,97.56
2018-11-21T05:54:13.615Z,96.77
2018-11-21T06:04:31.908Z,96.58
2018-11-21T06:09:54.390Z,96.87
2018-11-21T06:15:16.904Z,95.90
2018-11-21T06:20:39.743Z,96.28
2018-11-21T06:26:02.233Z,96.88
2018-11-21T06:31:06.038Z,96.35
2018-11-21T06:36:09.635Z,96.05
2018-11-21T06:41:32.081Z,96.12
2018-11-21T06:46:35.668Z,96.03
2018-11-21T06:51:58.099Z,96.15
2018-11-21T07:02:17.333Z,96.32
2018-11-21T07:07:39.891Z,95.42
2018-11-21T07:13:02.389Z,95.60
2018-11-21T07:18:06.079Z,95.27
2018-11-21T07:23:28.552Z,96.71
2018-11-21T07:28:44.230Z,94.83
2018-11-21T07:34:06.719Z,95.21
2018-11-21T07:39:10.143Z,95.94
2018-11-21T07:44:13.670Z,94.70
2018-11-21T07:49:36.105Z,94.85
2018-11-21T07:54:39.519Z,95.51
2018-11-21T08:11:08.452Z,94.27
2018-11-21T08:16:30.882Z,93.61
2018-11-21T08:21:53.355Z,94.73
2018-11-21T08:32:12.252Z,94.30
2018-11-21T08:37:15.665Z,93.85
2018-11-21T08:42:38.118Z,93.79
2018-11-21T08:47:41.517Z,93.66
2018-11-21T08:53:03.975Z,94.33
2018-11-21T09:08:39.137Z,93.38
2018-11-21T09:14:01.583Z,92.93
2018-11-21T09:19:05.069Z,92.66
2018-11-21T09:24:27.518Z,93.94
2018-11-21T09:29:31.462Z,93.06
2018-11-21T09:34:53.854Z,91.96
2018-11-21T09:39:57.303Z,93.12
2018-11-21T09:45:00.689Z,93.13
2018-11-21T09:50:06.006Z,93.79
2018-11-21T09:55:09.649Z,93.39
2018-11-21T10:00:52.642Z,91.72
2018-11-21T10:05:58.760Z,93.24
2018-11-21T10:11:21.202Z,91.92
2018-11-21T10:16:43.689Z,91.40
2018-11-21T10:21:47.125Z,90.10
2018-11-21T10:26:51.007Z,89.04
2018-11-21T10:32:13.481Z,88.01
2018-11-21T10:37:35.961Z,87.99
2018-11-21T10:47:54.423Z,88.52
2018-11-21T10:53:16.859Z,85.82
2018-11-21T10:58:20.630Z,85.23
2018-11-21T11:03:43.070Z,85.44
2018-11-21T11:14:20.706Z,86.31
2018-11-21T11:19:43.209Z,85.51
2018-11-21T11:24:59.827Z,84.89
2018-11-21T11:30:25.215Z,85.09
2018-11-21T11:35:47.690Z,85.40
2018-11-21T11:41:10.197Z,86.70
2018-11-21T11:46:32.714Z,85.19
2018-11-21T11:51:47.681Z,85.19
2018-11-21T11:57:10.366Z,83.87
2018-11-21T12:02:32.902Z,83.97
2018-11-21T12:23:40.720Z,83.64
2018-11-21T12:29:03.178Z,83.06
2018-11-21T12:34:27.208Z,83.48
2018-11-21T12:45:04.936Z,82.88
2018-11-21T12:50:29.013Z,84.10
2018-11-21T12:55:51.507Z,83.58
2018-11-21T13:01:14.016Z,81.87
2018-11-21T13:11:51.589Z,81.85
2018-11-21T13:17:10.570Z,82.18
2018-11-21T13:22:33.176Z,82.37
2018-11-21T13:27:55.678Z,83.58
2018-11-21T13:38:34.376Z,84.07
2018-11-21T13:43:56.876Z,87.71
2018-11-21T13:54:34.928Z,91.35
2018-11-21T13:59:38.353Z,92.54
2018-11-21T14:04:41.878Z,93.62
2018-11-21T14:09:45.245Z,92.53
2018-11-21T14:15:07.724Z,91.59
2018-11-21T14:25:27.269Z,93.65
2018-11-21T14:30:49.706Z,94.59
2018-11-21T14:36:12.183Z,95.03
2018-11-21T14:46:31.008Z,95.56
2018-11-21T14:51:34.417Z,96.38
2018-11-21T14:56:56.849Z,95.94
2018-11-21T15:02:19.316Z,95.44
2018-11-21T15:12:31.692Z,96.53
2018-11-21T15:17:54.401Z,96.22
2018-11-21T15:23:09.990Z,96.54
2018-11-21T15:28:13.535Z,96.50
2018-11-21T15:33:36.054Z,96.99
2018-11-21T15:54:25.366Z,98.41
2018-11-21T15:59:47.923Z,98.80
2018-11-21T16:05:04.207Z,98.71
2018-11-21T16:10:21.718Z,99.42
2018-11-21T16:15:44.753Z,99.36
2018-11-21T16:31:28.233Z,100.00
2018-11-21T16:47:09.782Z,100.00
2018-11-21T16:52:13.470Z,100.00
2018-11-21T16:57:36.029Z,100.00
2018-11-21T17:02:52.052Z,100.00
2018-11-21T17:08:08.291Z,100.00
2018-11-21T17:13:30.805Z,100.00
2018-11-21T17:28:59.584Z,100.00
2018-11-21T17:34:03.452Z,100.00
2018-11-21T17:39:29.399Z,100.00
2018-11-21T17:44:45.538Z,100.00
2018-11-21T17:50:00.963Z,100.00
2018-11-21T17:55:18.655Z,100.00
2018-11-21T18:00:34.349Z,100.00
2018-11-21T18:05:50.090Z,100.00
2018-11-21T18:11:06.034Z,100.00
2018-11-21T18:16:29.009Z,100.00
2018-11-21T18:42:09.608Z,100.00
2018-11-21T18:57:54.182Z,100.00
2018-11-21T19:13:29.656Z,100.00
2018-11-21T19:23:41.958Z,100.00
2018-11-21T19:33:54.732Z,100.00
2018-11-21T19:38:58.130Z,100.00
2018-11-21T19:49:11.283Z,100.00
2018-11-21T19:54:33.773Z,100.00
2018-11-21T19:59:49.221Z,100.00
2018-11-21T20:04:53.000Z,100.00
2018-11-21T20:09:56.596Z,100.00
2018-11-21T20:15:00.228Z,100.00
2018-11-21T20:20:03.859Z,100.00
2018-11-21T20:25:27.913Z,100.00
2018-11-21T20:35:46.729Z,100.00
2018-11-21T20:41:09.684Z,100.00
2018-11-21T20:46:25.069Z,100.00
2018-11-21T20:51:42.003Z,100.00
2018-11-21T20:56:45.658Z,100.00
2018-11-21T21:07:01.428Z,100.00
2018-11-21T21:12:24.186Z,100.00
2018-11-21T21:33:07.033Z,100.00
2018-11-21T21:43:43.460Z,100.00
2018-11-21T21:49:10.564Z,100.00
2018-11-21T21:59:53.002Z,100.00
2018-11-21T22:04:50.536Z,100.00
2018-11-21T22:10:31.214Z,100.00
2018-11-21T22:16:02.200Z,100.00
2018-11-21T22:21:04.313Z,100.00
2018-11-21T22:26:07.954Z,100.00
2018-11-21T22:32:09.126Z,100.00
2018-11-21T22:37:17.448Z,100.00
2018-11-21T22:42:23.271Z,100.00
2018-11-21T22:47:44.463Z,100.00
2018-11-21T23:03:06.561Z,100.00
2018-11-21T23:08:10.031Z,100.00
2018-11-21T23:13:13.647Z,100.00
2018-11-21T23:18:17.076Z,100.00
2018-11-21T23:23:39.781Z,100.00
2018-11-21T23:28:43.209Z,100.00
2018-11-21T23:33:46.698Z,100.00
2018-11-21T23:38:50.124Z,100.00
2018-11-21T23:43:53.766Z,100.00
2018-11-21T23:49:16.262Z,100.00
2018-11-21T23:54:19.662Z,100.00
2018-11-21T23:59:23.021Z,100.00
